Time;durP1;ratioP1;P1;durP2;ratioP2;P2;SDS_P1;SDS_P2;PMS_P1;PMS_P2;Temp;Humidity;BMP_temperature;BMP_pressure;BME280_temperature;BME280_humidity;BME280_pressure;Samples;Min_cycle;Max_cycle;Signal;HPM_P1;HPM_P2
2024/01/28 00:01:31;;;;;;;12.50;5.20;;;1.80;99.90;;;;;;4834433;29;20458;-75
2024/01/28 00:03:57;;;;;;;12.83;5.97;;;1.90;99.90;;;;;;4818605;29;20507;-74
2024/01/28 00:06:23;;;;;;;17.20;5.70;;;1.80;99.90;;;;;;4817736;29;20215;-74
2024/01/28 00:08:48;;;;;;;17.00;6.17;;;1.90;99.90;;;;;;4832275;29;20214;-78
2024/01/28 00:11:14;;;;;;;14.03;5.80;;;1.90;99.90;;;;;;4816636;29;20205;-75
2024/01/28 00:13:39;;;;;;;13.20;5.70;;;1.80;99.90;;;;;;4818707;29;20296;-80
2024/01/28 00:16:05;;;;;;;14.10;4.80;;;1.90;99.90;;;;;;4835075;29;20248;-74
2024/01/28 00:18:31;;;;;;;13.00;4.33;;;1.80;99.90;;;;;;4824346;29;20230;-75
2024/01/28 00:20:56;;;;;;;10.13;5.13;;;1.80;99.90;;;;;;4821856;29;20182;-76
2024/01/28 00:23:22;;;;;;;15.00;5.30;;;1.80;99.90;;;;;;4835179;29;20219;-77
2024/01/28 00:25:48;;;;;;;12.23;5.43;;;1.90;99.90;;;;;;4821133;29;20256;-74
2024/01/28 00:28:13;;;;;;;11.47;6.07;;;1.80;99.90;;;;;;4817679;29;20266;-75
2024/01/28 00:30:39;;;;;;;15.97;5.50;;;1.70;99.90;;;;;;4817015;29;20193;-74
2024/01/28 00:33:05;;;;;;;20.03;5.67;;;1.70;99.90;;;;;;4817705;29;20242;-74
2024/01/28 00:35:30;;;;;;;14.03;5.13;;;1.70;99.90;;;;;;4816026;29;20237;-73
2024/01/28 00:37:57;;;;;;;9.60;5.57;;;1.70;99.90;;;;;;4816217;29;20297;-75
2024/01/28 00:40:23;;;;;;;13.13;5.57;;;1.60;99.90;;;;;;4829979;29;20198;-73
2024/01/28 00:42:49;;;;;;;21.20;6.03;;;1.60;99.90;;;;;;4815235;29;20495;-74
2024/01/28 00:45:14;;;;;;;12.80;7.47;;;1.50;99.90;;;;;;4829551;29;20480;-75
2024/01/28 00:47:43;;;;;;;11.33;5.30;;;1.50;99.90;;;;;;4831221;29;20213;-71
2024/01/28 00:50:09;;;;;;;19.97;7.73;;;1.50;99.90;;;;;;4811744;29;20222;-75
2024/01/28 00:52:35;;;;;;;15.23;6.43;;;1.50;99.90;;;;;;4816937;29;20435;-73
2024/01/28 00:55:00;;;;;;;10.40;5.60;;;1.50;99.90;;;;;;4830056;29;20432;-72
2024/01/28 00:57:26;;;;;;;13.97;6.37;;;1.50;99.90;;;;;;4814313;29;20306;-76
2024/01/28 00:59:51;;;;;;;13.30;6.60;;;1.50;99.90;;;;;;4815145;29;20186;-73
2024/01/28 01:02:17;;;;;;;13.83;6.47;;;1.40;99.90;;;;;;4815593;29;20290;-74
2024/01/28 01:04:42;;;;;;;18.60;5.90;;;1.40;99.90;;;;;;4813694;29;20218;-74
2024/01/28 01:07:08;;;;;;;11.03;4.63;;;1.40;99.90;;;;;;4815343;29;20210;-73
2024/01/28 01:09:35;;;;;;;13.43;6.20;;;1.30;99.90;;;;;;4815082;29;20198;-72
2024/01/28 01:12:04;;;;;;;14.57;5.40;;;1.30;99.90;;;;;;4816776;29;20445;-72
2024/01/28 01:14:35;;;;;;;13.10;4.50;;;1.40;99.90;;;;;;4818064;29;20734;-78
2024/01/28 01:17:01;;;;;;;9.53;4.90;;;1.40;99.90;;;;;;4816630;29;20455;-72
2024/01/28 01:19:27;;;;;;;10.40;4.13;;;1.40;99.90;;;;;;4819821;29;20734;-71
2024/01/28 01:21:53;;;;;;;9.93;4.83;;;1.40;99.90;;;;;;4836593;29;20443;-74
2024/01/28 01:24:18;;;;;;;10.70;4.93;;;1.40;99.90;;;;;;4831583;29;20222;-73
2024/01/28 01:26:44;;;;;;;12.50;6.17;;;1.40;99.90;;;;;;4823637;29;20206;-73
2024/01/28 01:29:09;;;;;;;13.67;5.27;;;1.40;99.90;;;;;;4825280;29;20167;-73
2024/01/28 01:31:35;;;;;;;11.23;5.20;;;1.40;99.90;;;;;;4818714;29;20293;-76
2024/01/28 01:34:02;;;;;;;9.67;4.83;;;1.50;99.90;;;;;;4837170;29;20203;-74
2024/01/28 01:36:28;;;;;;;14.60;4.57;;;1.50;99.90;;;;;;4818550;29;20215;-76
2024/01/28 01:38:54;;;;;;;13.37;5.30;;;1.40;99.90;;;;;;4816758;29;20465;-73
2024/01/28 01:41:19;;;;;;;13.20;4.83;;;1.40;99.90;;;;;;4818635;29;20191;-73
2024/01/28 01:43:45;;;;;;;11.63;4.00;;;1.50;99.90;;;;;;4816846;29;20195;-74
2024/01/28 01:46:12;;;;;;;9.03;4.93;;;1.40;99.90;;;;;;4816649;29;20206;-72
2024/01/28 01:48:38;;;;;;;8.93;4.60;;;1.40;99.90;;;;;;4817120;29;20244;-73
2024/01/28 01:51:06;;;;;;;12.67;5.33;;;1.50;99.90;;;;;;4830089;29;20439;-72
2024/01/28 01:53:33;;;;;;;14.57;5.07;;;1.50;99.90;;;;;;4816866;29;20199;-74
2024/01/28 01:55:59;;;;;;;9.53;4.40;;;1.40;99.90;;;;;;4816870;29;20454;-75
2024/01/28 01:58:24;;;;;;;14.47;3.70;;;1.40;99.90;;;;;;4817589;29;20427;-73
2024/01/28 02:00:51;;;;;;;12.80;4.17;;;1.40;99.90;;;;;;4815625;29;20542;-73
2024/01/28 02:03:16;;;;;;;14.87;4.57;;;1.40;99.90;;;;;;4817145;29;20193;-73
2024/01/28 02:05:42;;;;;;;15.63;5.30;;;1.40;99.90;;;;;;4832938;29;20483;-73
2024/01/28 02:08:07;;;;;;;8.00;3.87;;;1.50;99.90;;;;;;4832228;29;20194;-72
2024/01/28 02:10:33;;;;;;;13.33;4.70;;;1.40;99.90;;;;;;4829591;29;20236;-73
2024/01/28 02:12:59;;;;;;;9.50;5.13;;;1.50;99.90;;;;;;4814844;29;20190;-73
2024/01/28 02:15:25;;;;;;;13.03;5.17;;;1.50;99.90;;;;;;4814465;29;20744;-74
2024/01/28 02:17:50;;;;;;;10.07;3.50;;;1.40;99.90;;;;;;4818116;29;20194;-75
2024/01/28 02:20:16;;;;;;;10.03;4.50;;;1.40;99.90;;;;;;4815576;29;20436;-73
2024/01/28 02:22:42;;;;;;;12.87;4.33;;;1.50;99.90;;;;;;4814052;29;20190;-74
2024/01/28 02:25:08;;;;;;;8.80;4.23;;;1.40;99.90;;;;;;4815322;29;20234;-74
2024/01/28 02:27:35;;;;;;;11.00;3.80;;;1.50;99.90;;;;;;4815126;29;20751;-74
2024/01/28 02:30:01;;;;;;;10.43;3.63;;;1.50;99.90;;;;;;4817406;29;20206;-73
2024/01/28 02:32:26;;;;;;;9.00;4.20;;;1.50;99.90;;;;;;4815978;29;20463;-75
2024/01/28 02:34:52;;;;;;;11.67;4.27;;;1.50;99.90;;;;;;4817314;29;20458;-72
2024/01/28 02:37:18;;;;;;;12.07;4.70;;;1.40;99.90;;;;;;4814773;29;20267;-73
2024/01/28 02:39:44;;;;;;;9.73;4.23;;;1.30;99.90;;;;;;4829585;29;20211;-76
2024/01/28 02:42:10;;;;;;;12.60;4.73;;;1.30;99.90;;;;;;4816087;29;20214;-72
2024/01/28 02:44:35;;;;;;;9.00;3.43;;;1.30;99.90;;;;;;4817658;29;20524;-73
2024/01/28 02:47:01;;;;;;;10.67;4.50;;;1.30;99.90;;;;;;4816303;29;20247;-73
2024/01/28 02:49:27;;;;;;;14.30;4.30;;;1.30;99.90;;;;;;4815879;29;20226;-72
2024/01/28 02:51:53;;;;;;;9.93;4.30;;;1.30;99.90;;;;;;4817418;29;20234;-74
2024/01/28 02:54:22;;;;;;;19.27;5.00;;;1.30;99.90;;;;;;4822932;29;20453;-74
2024/01/28 02:56:48;;;;;;;10.13;3.90;;;1.40;99.90;;;;;;4821343;29;20436;-74
2024/01/28 02:59:14;;;;;;;8.20;4.60;;;1.30;99.90;;;;;;4816305;29;20456;-73
2024/01/28 03:01:47;;;;;;;8.33;3.77;;;1.30;99.90;;;;;;4814020;29;20950;-74
2024/01/28 03:04:16;;;;;;;10.20;4.20;;;1.20;99.90;;;;;;4814504;29;20293;-74
2024/01/28 03:06:42;;;;;;;8.40;3.40;;;1.30;99.90;;;;;;4827490;29;20482;-74
2024/01/28 03:09:08;;;;;;;9.10;3.80;;;1.30;99.90;;;;;;4812999;29;20428;-73
2024/01/28 03:11:35;;;;;;;9.07;4.30;;;1.30;99.90;;;;;;4812994;29;20550;-75
2024/01/28 03:14:01;;;;;;;11.93;4.47;;;1.30;99.90;;;;;;4814175;29;20451;-73
2024/01/28 03:16:26;;;;;;;9.33;4.80;;;1.30;99.90;;;;;;4815188;29;20467;-74
2024/01/28 03:18:52;;;;;;;9.30;4.10;;;1.30;99.90;;;;;;4815349;29;20191;-73
2024/01/28 03:21:17;;;;;;;12.37;3.73;;;1.40;99.90;;;;;;4817151;29;20213;-73
2024/01/28 03:23:43;;;;;;;13.10;4.83;;;1.30;99.90;;;;;;4814573;29;20581;-73
2024/01/28 03:26:12;;;;;;;11.17;3.70;;;1.40;99.90;;;;;;4812854;29;20254;-75
2024/01/28 03:28:38;;;;;;;8.13;3.80;;;1.30;99.90;;;;;;4813428;29;20190;-74
2024/01/28 03:31:04;;;;;;;10.57;3.90;;;1.40;99.90;;;;;;4814653;29;20419;-74
2024/01/28 03:33:30;;;;;;;8.10;3.97;;;1.40;99.90;;;;;;4817828;29;20262;-72
2024/01/28 03:35:56;;;;;;;8.77;4.80;;;1.40;99.90;;;;;;4815944;29;20773;-73
2024/01/28 03:38:22;;;;;;;13.23;4.40;;;1.40;99.90;;;;;;4813889;29;20294;-72
2024/01/28 03:40:47;;;;;;;8.37;4.20;;;1.40;99.90;;;;;;4813529;29;20723;-72
2024/01/28 03:43:13;;;;;;;14.07;4.60;;;1.40;99.90;;;;;;4813286;29;20198;-73
2024/01/28 03:45:39;;;;;;;9.07;4.00;;;1.40;99.90;;;;;;4813284;29;20237;-73
2024/01/28 03:48:05;;;;;;;12.00;4.17;;;1.40;99.90;;;;;;4813143;29;20198;-73
2024/01/28 03:50:30;;;;;;;7.40;3.80;;;1.50;99.90;;;;;;4812008;29;20234;-73
2024/01/28 03:52:56;;;;;;;9.10;4.07;;;1.40;99.90;;;;;;4815518;29;20485;-72
2024/01/28 03:55:22;;;;;;;8.93;3.60;;;1.60;99.90;;;;;;4815275;29;20218;-73
2024/01/28 03:57:47;;;;;;;9.33;4.00;;;1.60;99.90;;;;;;4828697;29;20207;-72
2024/01/28 04:00:14;;;;;;;9.43;3.60;;;1.50;99.90;;;;;;4832136;29;20445;-74
2024/01/28 04:02:41;;;;;;;9.63;3.70;;;1.60;99.90;;;;;;4830943;29;20212;-71
2024/01/28 04:05:07;;;;;;;6.90;2.97;;;1.50;99.90;;;;;;4829654;29;20484;-72
2024/01/28 04:07:32;;;;;;;6.27;3.07;;;1.50;99.90;;;;;;4834165;29;20435;-73
2024/01/28 04:09:58;;;;;;;10.17;3.20;;;1.50;99.90;;;;;;4835437;29;20435;-74
2024/01/28 04:12:23;;;;;;;7.30;3.10;;;1.50;99.90;;;;;;4834598;29;20215;-73
2024/01/28 04:14:49;;;;;;;9.43;3.60;;;1.50;99.90;;;;;;4835212;29;20197;-73
2024/01/28 04:17:15;;;;;;;7.27;3.10;;;1.50;99.90;;;;;;4835402;29;20240;-72
2024/01/28 04:19:41;;;;;;;8.10;3.33;;;1.50;99.90;;;;;;4836163;29;20193;-74
2024/01/28 04:22:10;;;;;;;8.90;2.97;;;1.50;99.90;;;;;;4822018;29;20427;-75
2024/01/28 04:24:36;;;;;;;7.40;3.17;;;1.60;99.90;;;;;;4834188;29;20268;-72
2024/01/28 04:27:02;;;;;;;9.57;3.10;;;1.60;99.90;;;;;;4833928;29;20455;-73
2024/01/28 04:29:28;;;;;;;8.37;3.80;;;1.50;99.90;;;;;;4815997;29;20439;-73
2024/01/28 04:31:53;;;;;;;5.47;2.80;;;1.50;99.90;;;;;;4829173;29;20426;-71
2024/01/28 04:34:20;;;;;;;9.13;3.17;;;1.50;99.90;;;;;;4813034;29;20600;-73
2024/01/28 04:36:46;;;;;;;4.43;3.23;;;1.50;99.90;;;;;;4810765;29;20221;-71
2024/01/28 04:39:12;;;;;;;10.00;3.90;;;1.50;99.90;;;;;;4810897;29;20424;-72
2024/01/28 04:41:38;;;;;;;6.43;3.37;;;1.50;99.90;;;;;;4810604;29;20440;-73
2024/01/28 04:44:04;;;;;;;8.07;3.00;;;1.40;99.90;;;;;;4811433;29;20982;-70
2024/01/28 04:46:30;;;;;;;8.47;3.03;;;1.50;99.90;;;;;;4815008;29;20452;-71
2024/01/28 04:48:55;;;;;;;6.33;3.37;;;1.40;99.90;;;;;;4815042;29;20216;-72
2024/01/28 04:51:21;;;;;;;10.63;3.03;;;1.40;99.90;;;;;;4815830;29;20280;-72
2024/01/28 04:53:47;;;;;;;8.90;3.17;;;1.40;99.90;;;;;;4814537;29;20198;-72
2024/01/28 04:56:12;;;;;;;6.63;3.20;;;1.40;99.90;;;;;;4814454;29;20210;-72
2024/01/28 04:58:38;;;;;;;7.40;2.57;;;1.40;99.90;;;;;;4813941;29;20197;-74
2024/01/28 05:01:03;;;;;;;6.47;2.90;;;1.40;99.90;;;;;;4813144;29;20206;-73
2024/01/28 05:03:29;;;;;;;8.83;3.00;;;1.50;99.90;;;;;;4815730;29;20201;-73
2024/01/28 05:05:55;;;;;;;6.73;2.50;;;1.40;99.90;;;;;;4813399;29;20262;-71
2024/01/28 05:08:20;;;;;;;12.23;4.47;;;1.40;99.90;;;;;;4814655;29;20198;-73
2024/01/28 05:10:46;;;;;;;5.57;2.67;;;1.40;99.90;;;;;;4814709;29;20197;-74
2024/01/28 05:13:12;;;;;;;6.67;2.87;;;1.40;99.90;;;;;;4813727;29;20201;-73
2024/01/28 05:15:37;;;;;;;12.03;3.10;;;1.30;99.90;;;;;;4815084;29;20231;-77
2024/01/28 05:18:03;;;;;;;11.53;3.30;;;1.40;99.90;;;;;;4815696;29;20195;-72
2024/01/28 05:20:28;;;;;;;6.43;3.60;;;1.40;99.90;;;;;;4813890;29;20282;-71
2024/01/28 05:22:54;;;;;;;8.70;2.83;;;1.40;99.90;;;;;;4814296;29;20205;-73
2024/01/28 05:25:20;;;;;;;7.10;2.40;;;1.40;99.90;;;;;;4813354;29;20236;-73
2024/01/28 05:27:46;;;;;;;6.83;3.03;;;1.40;99.90;;;;;;4827426;29;20281;-74
2024/01/28 05:30:12;;;;;;;8.30;2.80;;;1.30;99.90;;;;;;4827980;29;20266;-73
2024/01/28 05:32:38;;;;;;;13.33;3.70;;;1.30;99.90;;;;;;4814205;29;20855;-76
2024/01/28 05:35:04;;;;;;;6.37;3.10;;;1.30;99.90;;;;;;4813713;29;20602;-71
2024/01/28 05:37:30;;;;;;;7.80;2.67;;;1.30;99.90;;;;;;4815153;29;20543;-72
2024/01/28 05:39:58;;;;;;;6.50;2.67;;;1.20;99.90;;;;;;4815883;29;20455;-72
2024/01/28 05:42:24;;;;;;;6.73;3.40;;;1.20;99.90;;;;;;4814617;29;20194;-73
2024/01/28 05:44:49;;;;;;;9.20;2.53;;;1.30;99.90;;;;;;4816547;29;20908;-72
2024/01/28 05:47:15;;;;;;;7.10;2.63;;;1.20;99.90;;;;;;4815824;29;20211;-73
2024/01/28 05:49:41;;;;;;;8.60;2.80;;;1.20;99.90;;;;;;4818990;29;20332;-73
2024/01/28 05:52:06;;;;;;;5.27;2.77;;;1.20;99.90;;;;;;4814958;29;20428;-72
2024/01/28 05:54:33;;;;;;;5.10;3.00;;;1.10;99.90;;;;;;4812526;29;20901;-73
2024/01/28 05:56:59;;;;;;;5.90;3.00;;;1.20;99.90;;;;;;4811380;29;20439;-72
2024/01/28 05:59:25;;;;;;;14.50;3.40;;;1.10;99.90;;;;;;4813191;29;20463;-72
2024/01/28 06:01:50;;;;;;;9.73;4.00;;;1.10;99.90;;;;;;4813654;29;20420;-72
2024/01/28 06:04:16;;;;;;;10.40;4.10;;;1.10;99.90;;;;;;4824564;29;20222;-73
2024/01/28 06:06:42;;;;;;;3.87;2.80;;;1.00;99.90;;;;;;4826274;29;20286;-72
2024/01/28 06:09:09;;;;;;;13.10;3.57;;;1.10;99.90;;;;;;4811510;29;20206;-72
2024/01/28 06:11:36;;;;;;;12.90;3.43;;;1.00;99.90;;;;;;4812638;29;20416;-73
2024/01/28 06:14:01;;;;;;;4.63;2.77;;;1.00;99.90;;;;;;4811711;29;20436;-74
2024/01/28 06:16:27;;;;;;;16.70;4.10;;;1.10;99.90;;;;;;4812172;29;20471;-72
2024/01/28 06:18:53;;;;;;;8.70;3.40;;;1.10;99.90;;;;;;4834453;29;20263;-72
2024/01/28 06:21:18;;;;;;;11.47;3.37;;;1.20;99.90;;;;;;4815371;29;20206;-73
2024/01/28 06:23:44;;;;;;;6.17;2.77;;;1.30;99.90;;;;;;4813523;29;20198;-73
2024/01/28 06:26:10;;;;;;;6.57;3.03;;;1.30;99.90;;;;;;4824828;29;20218;-74
2024/01/28 06:28:35;;;;;;;5.83;3.23;;;1.30;99.90;;;;;;4812052;29;20670;-73
2024/01/28 06:31:01;;;;;;;6.37;3.30;;;1.30;99.90;;;;;;4813460;29;20217;-72
2024/01/28 06:33:27;;;;;;;5.80;3.23;;;1.30;99.90;;;;;;4813069;29;20273;-71
2024/01/28 06:35:53;;;;;;;8.37;3.80;;;1.30;99.90;;;;;;4811451;29;20271;-73
2024/01/28 06:38:18;;;;;;;9.83;3.57;;;1.30;99.90;;;;;;4811366;29;20851;-73
2024/01/28 06:40:44;;;;;;;10.53;3.10;;;1.30;99.90;;;;;;4812454;29;20485;-71
2024/01/28 06:43:09;;;;;;;5.13;3.30;;;1.20;99.90;;;;;;4811682;29;20562;-72
2024/01/28 06:45:35;;;;;;;7.40;3.67;;;1.30;99.90;;;;;;4812108;29;20633;-72
2024/01/28 06:48:00;;;;;;;14.53;4.07;;;1.20;99.90;;;;;;4812365;29;20672;-72
2024/01/28 06:50:26;;;;;;;5.53;3.20;;;1.20;99.90;;;;;;4816561;29;20304;-72
2024/01/28 06:52:52;;;;;;;9.63;3.50;;;1.10;99.90;;;;;;4812838;29;20190;-72
2024/01/28 06:55:17;;;;;;;8.27;3.47;;;1.20;99.90;;;;;;4813290;29;20218;-72
2024/01/28 06:57:43;;;;;;;7.43;3.00;;;1.20;99.90;;;;;;4812998;29;20209;-73
2024/01/28 07:00:13;;;;;;;8.03;3.40;;;1.20;99.90;;;;;;4812344;29;20202;-73
2024/01/28 07:02:39;;;;;;;6.47;3.00;;;1.30;99.90;;;;;;4813275;29;20246;-71
2024/01/28 07:05:05;;;;;;;9.70;4.00;;;1.30;99.90;;;;;;4825831;29;20558;-73
2024/01/28 07:07:31;;;;;;;8.20;3.13;;;1.10;99.90;;;;;;4808692;29;20190;-71
2024/01/28 07:09:57;;;;;;;10.43;4.33;;;1.20;99.90;;;;;;4810907;29;20504;-74
2024/01/28 07:12:22;;;;;;;8.27;3.40;;;1.20;99.90;;;;;;4811841;29;20270;-73
2024/01/28 07:14:48;;;;;;;5.67;3.87;;;1.20;99.90;;;;;;4811265;29;20210;-73
2024/01/28 07:17:13;;;;;;;8.23;3.97;;;1.10;99.90;;;;;;4811309;29;20253;-73
2024/01/28 07:19:40;;;;;;;7.03;3.13;;;1.20;99.90;;;;;;4826960;29;20210;-72
2024/01/28 07:22:06;;;;;;;8.07;4.20;;;1.10;99.90;;;;;;4828455;29;20585;-73
2024/01/28 07:24:32;;;;;;;4.73;3.53;;;1.10;99.90;;;;;;4812433;29;20473;-73
2024/01/28 07:26:58;;;;;;;8.20;3.60;;;1.10;99.90;;;;;;4815407;29;20225;-74
2024/01/28 07:29:24;;;;;;;9.13;3.40;;;1.20;99.90;;;;;;4816053;29;20286;-72
2024/01/28 07:31:51;;;;;;;9.40;4.07;;;1.20;99.90;;;;;;4817171;29;20460;-72
2024/01/28 07:34:19;;;;;;;6.90;3.93;;;1.20;99.90;;;;;;4816050;29;20236;-73
2024/01/28 07:36:50;;;;;;;6.93;3.20;;;1.30;99.90;;;;;;4813464;29;20863;-74
2024/01/28 07:39:15;;;;;;;13.47;4.10;;;1.30;99.90;;;;;;4811887;29;20858;-75
2024/01/28 07:41:41;;;;;;;8.77;3.47;;;1.30;99.90;;;;;;4811040;29;20474;-73
2024/01/28 07:44:08;;;;;;;14.20;3.30;;;1.40;99.90;;;;;;4811789;29;20202;-74
2024/01/28 07:46:34;;;;;;;7.70;3.97;;;1.30;99.90;;;;;;4810999;29;20452;-75
2024/01/28 07:48:59;;;;;;;6.50;3.40;;;1.30;99.90;;;;;;4814465;29;20470;-73
2024/01/28 07:51:25;;;;;;;11.67;3.03;;;1.30;99.90;;;;;;4813967;29;20436;-72
2024/01/28 07:53:51;;;;;;;9.80;2.77;;;1.40;99.90;;;;;;4811188;29;20214;-71
2024/01/28 07:56:17;;;;;;;9.47;3.20;;;1.50;99.90;;;;;;4812228;29;20226;-74
2024/01/28 07:58:42;;;;;;;6.73;3.30;;;1.50;99.90;;;;;;4811686;29;20416;-74
2024/01/28 08:01:08;;;;;;;11.17;3.43;;;1.60;99.90;;;;;;4811569;29;20488;-73
2024/01/28 08:03:33;;;;;;;7.87;3.10;;;1.60;99.90;;;;;;4812412;29;20210;-73
2024/01/28 08:05:59;;;;;;;7.17;2.83;;;1.60;99.90;;;;;;4812902;29;20272;-75
2024/01/28 08:08:25;;;;;;;8.57;2.93;;;1.80;99.90;;;;;;4812891;29;20198;-76
2024/01/28 08:10:51;;;;;;;8.23;3.60;;;1.70;99.90;;;;;;4825455;29;20194;-72
2024/01/28 08:13:17;;;;;;;7.10;2.63;;;1.70;99.90;;;;;;4810962;29;20218;-74
2024/01/28 08:15:43;;;;;;;9.57;3.30;;;1.80;99.90;;;;;;4811590;29;20463;-73
2024/01/28 08:18:08;;;;;;;6.57;2.80;;;1.80;99.90;;;;;;4815546;29;20457;-73
2024/01/28 08:20:34;;;;;;;10.60;3.50;;;1.90;99.90;;;;;;4815287;29;20471;-72
2024/01/28 08:22:59;;;;;;;5.07;2.97;;;2.00;99.90;;;;;;4811823;29;20288;-72
2024/01/28 08:25:25;;;;;;;9.70;3.67;;;2.10;99.90;;;;;;4811712;29;20225;-72
2024/01/28 08:27:51;;;;;;;8.00;3.20;;;2.20;99.90;;;;;;4811187;29;20204;-74
2024/01/28 08:30:22;;;;;;;6.37;3.57;;;2.20;99.90;;;;;;4811383;29;20206;-72
2024/01/28 08:32:48;;;;;;;7.43;3.20;;;2.30;99.90;;;;;;4814068;29;20251;-74
2024/01/28 08:35:13;;;;;;;6.80;2.97;;;2.40;99.90;;;;;;4813910;29;20921;-73
2024/01/28 08:37:39;;;;;;;9.97;2.90;;;2.40;99.90;;;;;;4813095;29;20265;-73
2024/01/28 08:40:07;;;;;;;7.27;2.67;;;2.50;99.90;;;;;;4811608;29;20190;-72
2024/01/28 08:42:34;;;;;;;7.50;3.03;;;2.50;99.90;;;;;;4811954;29;20241;-73
2024/01/28 08:45:00;;;;;;;11.30;3.53;;;2.60;99.90;;;;;;4796319;29;20487;-73
2024/01/28 08:47:25;;;;;;;7.00;2.73;;;2.70;99.90;;;;;;4811568;29;20940;-73
2024/01/28 08:49:51;;;;;;;9.50;3.27;;;2.80;99.90;;;;;;4815546;29;20483;-73
2024/01/28 08:52:18;;;;;;;6.80;3.30;;;2.80;99.90;;;;;;4826861;29;20206;-74
2024/01/28 08:54:45;;;;;;;6.47;2.97;;;2.80;99.90;;;;;;4812125;29;20191;-73
2024/01/28 08:57:11;;;;;;;10.13;3.20;;;2.80;99.90;;;;;;4811239;29;20452;-73
2024/01/28 08:59:37;;;;;;;4.73;2.50;;;2.90;99.90;;;;;;4812740;29;20435;-73
2024/01/28 09:02:03;;;;;;;6.83;2.43;;;3.00;99.90;;;;;;4812133;29;20583;-72
2024/01/28 09:04:29;;;;;;;7.00;3.00;;;3.10;99.90;;;;;;4816914;29;20464;-74
2024/01/28 09:06:54;;;;;;;9.03;3.20;;;3.20;99.90;;;;;;4812608;29;20640;-75
2024/01/28 09:09:20;;;;;;;8.07;2.93;;;3.30;99.90;;;;;;4811987;29;20604;-73
2024/01/28 09:11:45;;;;;;;7.13;2.63;;;3.40;99.90;;;;;;4812909;29;20282;-74
2024/01/28 09:14:11;;;;;;;11.70;3.57;;;3.40;99.90;;;;;;4829020;29;20229;-74
2024/01/28 09:16:37;;;;;;;5.60;3.03;;;3.50;99.90;;;;;;4818529;29;20213;-74
2024/01/28 09:19:04;;;;;;;4.37;2.33;;;3.50;99.90;;;;;;4833123;29;20410;-74
2024/01/28 09:21:30;;;;;;;5.00;2.90;;;3.60;99.90;;;;;;4816490;29;20207;-73
2024/01/28 09:23:58;;;;;;;8.07;2.83;;;3.70;99.90;;;;;;4812387;29;20525;-71
2024/01/28 09:26:24;;;;;;;7.43;3.00;;;3.80;99.90;;;;;;4812094;29;20731;-73
2024/01/28 09:28:49;;;;;;;3.37;2.43;;;3.90;99.90;;;;;;4811865;29;20518;-73
2024/01/28 09:31:15;;;;;;;5.33;2.33;;;4.00;99.90;;;;;;4813748;29;20762;-75
2024/01/28 09:33:41;;;;;;;6.27;3.00;;;4.00;99.90;;;;;;4816995;29;20534;-72
2024/01/28 09:36:06;;;;;;;5.67;2.70;;;4.10;99.90;;;;;;4814670;29;20220;-74
2024/01/28 09:38:32;;;;;;;10.80;3.60;;;4.20;99.20;;;;;;4815426;29;20226;-73
2024/01/28 09:41:08;;;;;;;9.17;2.70;;;4.30;98.50;;;;;;4815886;29;20236;-75
2024/01/28 09:43:39;;;;;;;8.87;3.20;;;4.30;98.40;;;;;;4816566;29;20447;-73
2024/01/28 09:46:06;;;;;;;5.77;2.70;;;4.40;97.90;;;;;;4814737;29;20563;-74
2024/01/28 09:48:32;;;;;;;7.17;2.60;;;4.40;97.70;;;;;;4817085;29;20772;-75
2024/01/28 09:50:58;;;;;;;10.03;3.30;;;4.50;97.70;;;;;;4819444;29;20447;-72
2024/01/28 09:53:24;;;;;;;5.90;2.90;;;4.60;97.20;;;;;;4814460;29;20435;-73
2024/01/28 09:55:50;;;;;;;5.53;3.40;;;4.60;96.60;;;;;;4816446;29;20456;-73
2024/01/28 09:58:16;;;;;;;6.43;3.40;;;4.70;96.50;;;;;;4815741;29;20198;-73
2024/01/28 10:00:42;;;;;;;6.63;3.00;;;4.80;95.80;;;;;;4815659;29;20430;-73
2024/01/28 10:03:09;;;;;;;7.30;3.20;;;4.90;94.90;;;;;;4816969;29;20474;-73
2024/01/28 10:05:35;;;;;;;10.30;3.57;;;5.10;94.10;;;;;;4786165;29;20475;-74
2024/01/28 10:08:05;;;;;;;5.03;2.60;;;5.20;93.30;;;;;;4815607;29;20854;-73
2024/01/28 10:10:34;;;;;;;8.70;3.20;;;5.30;92.80;;;;;;4816308;29;20178;-73
2024/01/28 10:13:00;;;;;;;5.83;3.67;;;5.30;92.30;;;;;;4818260;29;20442;-74
2024/01/28 10:15:27;;;;;;;8.70;3.17;;;5.30;92.10;;;;;;4816910;29;20479;-73
2024/01/28 10:17:53;;;;;;;6.00;2.77;;;5.40;91.80;;;;;;4817575;29;20439;-73
2024/01/28 10:20:22;;;;;;;6.83;3.30;;;5.40;91.40;;;;;;4803134;29;20460;-76
2024/01/28 10:22:49;;;;;;;9.50;3.80;;;5.50;91.10;;;;;;4818636;29;20494;-72
2024/01/28 10:25:16;;;;;;;8.70;3.57;;;5.50;90.90;;;;;;4816776;29;20467;-75
2024/01/28 10:27:43;;;;;;;7.53;3.50;;;5.60;90.60;;;;;;4817279;29;20420;-74
2024/01/28 10:30:11;;;;;;;5.93;2.67;;;5.60;90.50;;;;;;4818618;29;20747;-75
2024/01/28 10:32:37;;;;;;;10.43;3.50;;;5.70;90.40;;;;;;4820479;29;20415;-75
2024/01/28 10:35:13;;;;;;;4.43;2.60;;;5.70;90.00;;;;;;4831236;29;20515;-75
2024/01/28 10:37:40;;;;;;;6.87;3.60;;;5.80;89.70;;;;;;4822328;29;20453;-77
2024/01/28 10:40:08;;;;;;;5.60;3.20;;;5.80;89.00;;;;;;4821222;29;20425;-72
2024/01/28 10:42:41;;;;;;;7.43;3.30;;;5.80;88.80;;;;;;4836021;29;20443;-77
2024/01/28 10:45:11;;;;;;;8.00;3.67;;;6.00;88.40;;;;;;4821506;29;20502;-74
2024/01/28 10:47:44;;;;;;;10.47;3.33;;;5.90;87.70;;;;;;4820536;29;20411;-74
2024/01/28 10:50:12;;;;;;;6.60;3.10;;;6.00;88.20;;;;;;4820291;29;20759;-74
2024/01/28 10:52:38;;;;;;;5.53;2.47;;;6.20;87.50;;;;;;4820828;29;20432;-75
2024/01/28 10:55:05;;;;;;;7.87;3.20;;;6.10;87.00;;;;;;4817754;29;20459;-74
2024/01/28 10:57:32;;;;;;;7.00;3.90;;;6.20;86.70;;;;;;4831122;29;20948;-74
2024/01/28 10:59:59;;;;;;;7.83;3.20;;;6.20;87.30;;;;;;4818228;29;20424;-76
2024/01/28 11:02:26;;;;;;;6.13;2.80;;;6.30;85.50;;;;;;4816310;29;20424;-77
2024/01/28 11:04:53;;;;;;;10.37;4.23;;;6.40;85.00;;;;;;4822472;29;20463;-75
2024/01/28 11:07:19;;;;;;;5.30;3.80;;;6.50;84.80;;;;;;4832497;29;20997;-74
2024/01/28 11:09:46;;;;;;;8.80;3.50;;;6.60;84.30;;;;;;4817970;29;20432;-75
2024/01/28 11:12:13;;;;;;;4.17;2.60;;;6.60;84.50;;;;;;4833476;29;20186;-78
2024/01/28 11:14:38;;;;;;;7.50;3.53;;;6.60;84.50;;;;;;4832429;29;20420;-74
2024/01/28 11:17:04;;;;;;;6.97;3.90;;;6.70;83.90;;;;;;4817465;29;20459;-74
2024/01/28 11:19:30;;;;;;;4.97;3.10;;;6.70;83.60;;;;;;4820373;29;20253;-77
2024/01/28 11:21:58;;;;;;;8.50;2.73;;;6.90;83.70;;;;;;4814267;29;20201;-72
2024/01/28 11:24:24;;;;;;;6.17;2.70;;;6.80;83.80;;;;;;4814330;29;20202;-75
2024/01/28 11:26:49;;;;;;;6.50;3.43;;;6.90;83.70;;;;;;4814747;29;20906;-73
2024/01/28 11:29:16;;;;;;;6.57;3.30;;;7.00;83.50;;;;;;4829220;29;20237;-76
2024/01/28 11:31:43;;;;;;;7.33;3.30;;;7.00;83.50;;;;;;4828438;29;20430;-73
2024/01/28 11:34:12;;;;;;;8.40;3.40;;;7.00;83.60;;;;;;4816904;29;20436;-72
2024/01/28 11:36:38;;;;;;;8.00;3.10;;;7.10;83.20;;;;;;4817351;29;20444;-74
2024/01/28 11:39:07;;;;;;;6.27;2.93;;;7.10;82.50;;;;;;4829923;29;20416;-72
2024/01/28 11:41:37;;;;;;;13.10;3.37;;;7.20;82.30;;;;;;4816239;29;20432;-75
2024/01/28 11:44:04;;;;;;;5.40;3.30;;;7.30;82.50;;;;;;4817182;29;20477;-75
2024/01/28 11:46:30;;;;;;;6.00;2.90;;;7.40;81.90;;;;;;4816159;29;20957;-75
2024/01/28 11:48:56;;;;;;;10.60;3.40;;;7.50;81.20;;;;;;4818411;29;20464;-75
2024/01/28 11:51:21;;;;;;;5.00;3.50;;;7.50;80.30;;;;;;4818500;29;20432;-74
2024/01/28 11:53:47;;;;;;;4.10;2.40;;;7.50;80.40;;;;;;4815000;29;20193;-76
2024/01/28 11:56:13;;;;;;;7.50;3.10;;;7.70;80.00;;;;;;4815130;29;20316;-73
2024/01/28 11:58:38;;;;;;;11.07;3.40;;;7.70;79.50;;;;;;4830642;29;20198;-74
2024/01/28 12:01:04;;;;;;;3.93;3.00;;;7.80;79.50;;;;;;4815829;29;20202;-72
2024/01/28 12:03:30;;;;;;;8.37;4.77;;;7.80;79.10;;;;;;4832779;29;20212;-77
2024/01/28 12:05:58;;;;;;;4.87;3.23;;;7.80;78.90;;;;;;4815312;29;20230;-75
2024/01/28 12:08:28;;;;;;;6.20;2.70;;;7.90;78.80;;;;;;4830155;29;20190;-74
2024/01/28 12:11:02;;;;;;;6.30;3.17;;;7.90;78.80;;;;;;4832087;29;20428;-76
2024/01/28 12:13:28;;;;;;;6.53;2.87;;;7.90;78.60;;;;;;4819632;29;20450;-73
2024/01/28 12:15:57;;;;;;;5.13;2.97;;;8.00;78.50;;;;;;4819349;29;20455;-76
2024/01/28 12:18:23;;;;;;;6.83;2.80;;;8.10;77.60;;;;;;4819884;29;20209;-76
2024/01/28 12:20:51;;;;;;;8.03;3.70;;;8.10;77.20;;;;;;4822803;29;20459;-73
2024/01/28 12:23:20;;;;;;;7.47;3.13;;;8.20;77.10;;;;;;4816300;29;20206;-73
2024/01/28 12:25:46;;;;;;;5.43;2.53;;;8.20;76.40;;;;;;4813903;29;20544;-76
2024/01/28 12:28:11;;;;;;;7.97;3.10;;;8.30;76.10;;;;;;4818459;29;20735;-76
2024/01/28 12:30:38;;;;;;;5.33;2.90;;;8.30;75.90;;;;;;4817260;29;20273;-77
2024/01/28 12:33:04;;;;;;;6.47;2.90;;;8.40;75.50;;;;;;4817139;29;20657;-75
2024/01/28 12:35:29;;;;;;;8.37;3.17;;;8.40;75.60;;;;;;4815121;29;20483;-76
2024/01/28 12:37:55;;;;;;;6.83;3.00;;;8.50;75.50;;;;;;4814086;29;20432;-75
2024/01/28 12:40:20;;;;;;;4.60;2.70;;;8.60;74.60;;;;;;4815743;29;20198;-75
2024/01/28 12:42:46;;;;;;;4.30;2.43;;;8.60;74.90;;;;;;4830812;29;20366;-76
2024/01/28 12:45:12;;;;;;;3.83;2.70;;;8.60;75.00;;;;;;4832671;29;20218;-75
2024/01/28 12:47:39;;;;;;;6.07;2.83;;;8.60;75.00;;;;;;4817076;29;20190;-76